Time;durP1;ratioP1;P1;durP2;ratioP2;P2;SDS_P1;SDS_P2;PMS_P1;PMS_P2;Temp;Humidity;BMP_temperature;BMP_pressure;BME280_temperature;BME280_humidity;BME280_pressure;Samples;Min_cycle;Max_cycle;Signal;HPM_P1;HPM_P2
2023/07/31 00:00:06;;;;;;;12.52;11.32;;;;;;;;;;4983679;28;20038;-75
2023/07/31 00:02:32;;;;;;;12.10;11.10;;;;;;;;;;4985599;28;20117;-75
2023/07/31 00:04:58;;;;;;;11.52;10.63;;;;;;;;;;4988549;28;20184;-72
2023/07/31 00:07:23;;;;;;;12.13;11.27;;;;;;;;;;4988669;28;20041;-73
2023/07/31 00:09:49;;;;;;;11.43;10.63;;;;;;;;;;4987267;28;20030;-74
2023/07/31 00:12:14;;;;;;;15.30;11.45;;;;;;;;;;4987958;28;20117;-72
2023/07/31 00:14:40;;;;;;;12.65;11.32;;;;;;;;;;4988697;28;20649;-74
2023/07/31 00:17:05;;;;;;;11.98;10.88;;;;;;;;;;4987333;28;20026;-74
2023/07/31 00:19:31;;;;;;;12.75;11.65;;;;;;;;;;4987462;28;20164;-74
2023/07/31 00:21:56;;;;;;;12.07;10.98;;;;;;;;;;4988289;28;20038;-73
2023/07/31 00:24:22;;;;;;;11.63;10.57;;;;;;;;;;4988229;28;20066;-73
2023/07/31 00:26:47;;;;;;;11.85;10.77;;;;;;;;;;4987418;28;20113;-74
2023/07/31 00:29:13;;;;;;;12.23;11.23;;;;;;;;;;4986724;28;20049;-73
2023/07/31 00:31:38;;;;;;;12.35;11.27;;;;;;;;;;4987115;28;20039;-73
2023/07/31 00:34:04;;;;;;;11.32;10.60;;;;;;;;;;4987525;28;20041;-73
2023/07/31 00:36:30;;;;;;;11.48;10.68;;;;;;;;;;4986045;28;20042;-73
2023/07/31 00:38:55;;;;;;;12.25;11.35;;;;;;;;;;4986282;28;20049;-73
2023/07/31 00:41:21;;;;;;;11.50;10.70;;;;;;;;;;4988025;28;20425;-72
2023/07/31 00:43:48;;;;;;;11.82;10.90;;;;;;;;;;4988084;28;20088;-73
2023/07/31 00:46:13;;;;;;;11.98;10.88;;;;;;;;;;4969409;28;20034;-73
2023/07/31 00:48:40;;;;;;;12.65;11.45;;;;;;;;;;4988020;28;20042;-74
2023/07/31 00:51:07;;;;;;;12.10;11.02;;;;;;;;;;4987821;28;20034;-73
2023/07/31 00:53:34;;;;;;;12.23;11.10;;;;;;;;;;4985652;28;20049;-73
2023/07/31 00:56:00;;;;;;;12.27;11.45;;;;;;;;;;4987033;28;20155;-73
2023/07/31 00:58:25;;;;;;;12.23;11.32;;;;;;;;;;4986904;28;20117;-73
2023/07/31 01:00:51;;;;;;;12.68;11.45;;;;;;;;;;4985735;28;20045;-73
2023/07/31 01:03:17;;;;;;;11.68;10.73;;;;;;;;;;4984490;28;20337;-74
2023/07/31 01:06:07;;;;;;;12.55;11.40;;;;;;;;;;4986728;28;20046;-74
2023/07/31 01:08:41;;;;;;;12.25;11.10;;;;;;;;;;4984973;28;20117;-73
2023/07/31 01:11:15;;;;;;;12.18;11.27;;;;;;;;;;4984890;28;20026;-74
2023/07/31 01:13:42;;;;;;;12.52;11.57;;;;;;;;;;4985755;28;20038;-74
2023/07/31 01:16:08;;;;;;;12.38;11.27;;;;;;;;;;4985472;28;20029;-73
2023/07/31 01:18:33;;;;;;;11.65;10.60;;;;;;;;;;4985222;28;20138;-74
2023/07/31 01:21:47;;;;;;;13.68;12.00;;;;;;;;;;4986392;28;20045;-73
2023/07/31 01:24:46;;;;;;;11.98;10.93;;;;;;;;;;4981370;28;20098;-73
2023/07/31 01:27:21;;;;;;;12.55;11.40;;;;;;;;;;4984086;28;20042;-73
2023/07/31 01:29:57;;;;;;;12.38;11.38;;;;;;;;;;4982385;28;20034;-73
2023/07/31 01:32:25;;;;;;;12.55;11.38;;;;;;;;;;4984761;28;20038;-73
2023/07/31 01:34:52;;;;;;;12.55;11.50;;;;;;;;;;4985235;28;20045;-72
2023/07/31 01:37:17;;;;;;;11.93;10.93;;;;;;;;;;4984674;28;20088;-72
2023/07/31 01:39:43;;;;;;;11.93;10.93;;;;;;;;;;4984757;28;20046;-74
2023/07/31 01:42:08;;;;;;;11.82;10.90;;;;;;;;;;4986043;28;20033;-72
2023/07/31 01:44:34;;;;;;;11.95;10.95;;;;;;;;;;4985090;28;20070;-74
2023/07/31 01:47:00;;;;;;;11.75;10.85;;;;;;;;;;4984925;28;20129;-74
2023/07/31 01:49:26;;;;;;;12.05;11.20;;;;;;;;;;4984830;28;20046;-74
2023/07/31 01:51:51;;;;;;;12.68;11.55;;;;;;;;;;4984582;28;20498;-73
2023/07/31 01:54:17;;;;;;;12.43;11.45;;;;;;;;;;4985674;28;20038;-73
2023/07/31 01:56:42;;;;;;;13.90;11.40;;;;;;;;;;4945677;28;1123714;-72
2023/07/31 01:59:08;;;;;;;12.30;11.45;;;;;;;;;;4986327;28;20552;-73
2023/07/31 02:01:33;;;;;;;12.25;11.23;;;;;;;;;;4984267;28;20046;-73
2023/07/31 02:03:59;;;;;;;14.15;12.60;;;;;;;;;;4984881;28;20060;-74
2023/07/31 02:06:25;;;;;;;12.57;11.68;;;;;;;;;;4986371;28;20117;-74
2023/07/31 02:08:50;;;;;;;12.52;11.35;;;;;;;;;;4984787;28;20120;-73
2023/07/31 02:11:16;;;;;;;12.48;11.30;;;;;;;;;;4985329;28;20441;-73
2023/07/31 02:13:42;;;;;;;12.13;11.32;;;;;;;;;;4988038;28;20030;-73
2023/07/31 02:16:07;;;;;;;11.82;11.00;;;;;;;;;;4986348;28;20038;-72
2023/07/31 02:18:33;;;;;;;12.13;11.18;;;;;;;;;;4984393;28;20030;-74
2023/07/31 02:20:58;;;;;;;12.20;11.18;;;;;;;;;;4984013;28;20049;-74
2023/07/31 02:23:25;;;;;;;11.93;11.02;;;;;;;;;;4985998;28;20041;-73
2023/07/31 02:25:50;;;;;;;12.32;11.43;;;;;;;;;;4985047;28;20406;-74
2023/07/31 02:28:16;;;;;;;11.88;10.93;;;;;;;;;;4976998;28;20042;-73
2023/07/31 02:30:48;;;;;;;12.10;11.05;;;;;;;;;;4987470;28;20108;-73
2023/07/31 02:33:16;;;;;;;12.32;11.25;;;;;;;;;;4982303;28;20482;-73
2023/07/31 02:35:42;;;;;;;11.55;10.65;;;;;;;;;;4984626;28;20042;-73
2023/07/31 02:38:07;;;;;;;12.32;11.27;;;;;;;;;;4983564;28;20501;-74
2023/07/31 02:40:33;;;;;;;12.55;11.25;;;;;;;;;;4984783;28;20038;-72
2023/07/31 02:42:58;;;;;;;11.95;10.98;;;;;;;;;;4984628;28;20145;-74
2023/07/31 02:45:24;;;;;;;14.10;12.07;;;;;;;;;;4984562;28;20545;-74
2023/07/31 02:47:49;;;;;;;12.70;11.80;;;;;;;;;;4984429;28;20034;-72
2023/07/31 02:50:15;;;;;;;13.20;12.10;;;;;;;;;;4984167;28;20073;-73
2023/07/31 02:52:41;;;;;;;12.82;11.63;;;;;;;;;;4985578;28;20037;-73
2023/07/31 02:55:07;;;;;;;13.40;11.85;;;;;;;;;;4985676;28;20113;-74
2023/07/31 02:57:32;;;;;;;12.40;11.23;;;;;;;;;;4964661;28;20038;-74
2023/07/31 02:59:58;;;;;;;11.75;10.93;;;;;;;;;;4984135;28;20107;-74
2023/07/31 03:02:23;;;;;;;11.80;10.88;;;;;;;;;;4982958;28;20046;-74
2023/07/31 03:04:49;;;;;;;13.20;12.10;;;;;;;;;;4978963;28;20126;-74
2023/07/31 03:07:14;;;;;;;12.63;11.38;;;;;;;;;;4981857;28;20034;-74
2023/07/31 03:09:40;;;;;;;12.20;11.20;;;;;;;;;;4980143;28;20438;-75
2023/07/31 03:12:06;;;;;;;12.50;11.48;;;;;;;;;;4980334;28;20121;-75
2023/07/31 03:14:32;;;;;;;12.65;11.38;;;;;;;;;;4980835;28;20034;-75
2023/07/31 03:16:59;;;;;;;12.55;11.55;;;;;;;;;;4979118;28;20138;-74
2023/07/31 03:19:25;;;;;;;12.35;11.05;;;;;;;;;;4988084;28;20030;-74
2023/07/31 03:21:50;;;;;;;13.95;11.43;;;;;;;;;;4982755;28;20073;-74
2023/07/31 03:24:16;;;;;;;14.07;11.00;;;;;;;;;;4980738;28;20494;-75
2023/07/31 03:26:41;;;;;;;11.88;11.07;;;;;;;;;;4980780;28;20482;-74
2023/07/31 03:29:08;;;;;;;12.52;11.43;;;;;;;;;;4981798;28;20038;-75
2023/07/31 03:31:34;;;;;;;12.50;11.55;;;;;;;;;;4982136;28;20073;-74
2023/07/31 03:33:59;;;;;;;12.80;11.68;;;;;;;;;;4979735;28;20038;-74
2023/07/31 03:36:26;;;;;;;12.65;11.75;;;;;;;;;;4980943;28;20038;-74
2023/07/31 03:38:52;;;;;;;12.35;11.45;;;;;;;;;;4979455;28;20045;-75
2023/07/31 03:41:19;;;;;;;11.77;10.90;;;;;;;;;;4978674;28;20096;-74
2023/07/31 03:43:55;;;;;;;11.75;10.93;;;;;;;;;;4980427;28;20039;-75
2023/07/31 03:46:22;;;;;;;12.20;11.38;;;;;;;;;;4980052;28;20034;-75
2023/07/31 03:48:48;;;;;;;11.73;10.52;;;;;;;;;;4977919;28;20034;-75
2023/07/31 03:51:14;;;;;;;12.10;11.15;;;;;;;;;;4980528;28;20050;-75
2023/07/31 03:53:39;;;;;;;12.18;11.27;;;;;;;;;;4981616;28;20035;-75
2023/07/31 03:56:05;;;;;;;13.45;12.18;;;;;;;;;;4981267;28;20053;-75
2023/07/31 03:58:30;;;;;;;11.45;10.65;;;;;;;;;;4975512;28;20160;-75
2023/07/31 04:00:56;;;;;;;11.70;10.80;;;;;;;;;;4988897;28;20030;-75
2023/07/31 04:03:22;;;;;;;12.38;11.32;;;;;;;;;;4987593;28;20510;-75
2023/07/31 04:05:47;;;;;;;13.00;11.93;;;;;;;;;;4983363;28;20521;-74
2023/07/31 04:08:13;;;;;;;12.63;11.55;;;;;;;;;;4981159;28;20052;-75
2023/07/31 04:10:38;;;;;;;11.82;10.93;;;;;;;;;;4984660;28;20149;-75
2023/07/31 04:13:04;;;;;;;11.60;10.48;;;;;;;;;;4983850;28;20133;-75
2023/07/31 04:15:30;;;;;;;10.95;10.25;;;;;;;;;;4984339;28;20042;-75
2023/07/31 04:17:55;;;;;;;11.82;10.73;;;;;;;;;;4990104;28;20041;-75
2023/07/31 04:20:21;;;;;;;11.35;10.48;;;;;;;;;;4987321;28;20034;-74
2023/07/31 04:22:46;;;;;;;11.82;10.82;;;;;;;;;;4984686;28;20109;-75
2023/07/31 04:25:12;;;;;;;11.93;10.88;;;;;;;;;;4988047;28;20062;-75
2023/07/31 04:27:38;;;;;;;11.93;11.02;;;;;;;;;;4987401;28;20093;-74
2023/07/31 04:30:04;;;;;;;12.80;11.57;;;;;;;;;;4989573;28;20493;-74
2023/07/31 04:32:30;;;;;;;13.20;10.80;;;;;;;;;;4985298;28;20096;-74
2023/07/31 04:34:56;;;;;;;12.65;11.63;;;;;;;;;;4988052;28;20073;-74
2023/07/31 04:37:21;;;;;;;12.60;11.30;;;;;;;;;;4985908;28;20026;-74
2023/07/31 04:39:47;;;;;;;12.52;11.43;;;;;;;;;;4984383;28;20053;-74
2023/07/31 04:42:12;;;;;;;11.88;10.90;;;;;;;;;;4992266;28;20049;-75
2023/07/31 04:44:38;;;;;;;11.60;10.65;;;;;;;;;;4988128;28;20049;-74
2023/07/31 04:47:04;;;;;;;13.73;10.82;;;;;;;;;;4987164;28;20038;-75
2023/07/31 04:49:29;;;;;;;11.68;10.68;;;;;;;;;;4985262;28;20050;-75
2023/07/31 04:51:55;;;;;;;12.82;10.52;;;;;;;;;;4987761;28;20041;-74
2023/07/31 04:54:20;;;;;;;10.80;10.10;;;;;;;;;;4988774;28;20117;-73
2023/07/31 04:56:47;;;;;;;12.10;10.95;;;;;;;;;;4987664;28;20071;-74
2023/07/31 04:59:12;;;;;;;11.52;10.73;;;;;;;;;;4986130;28;20053;-75
2023/07/31 05:01:38;;;;;;;11.50;10.60;;;;;;;;;;4983596;28;20530;-75
2023/07/31 05:04:03;;;;;;;11.65;10.60;;;;;;;;;;4987202;28;20030;-75
2023/07/31 05:06:29;;;;;;;11.48;10.55;;;;;;;;;;4987443;28;20042;-75
2023/07/31 05:08:55;;;;;;;11.85;10.95;;;;;;;;;;4986162;28;20042;-75
2023/07/31 05:11:20;;;;;;;11.55;10.50;;;;;;;;;;4987197;28;20127;-74
2023/07/31 05:13:46;;;;;;;12.18;11.02;;;;;;;;;;4987371;28;20032;-75
2023/07/31 05:16:11;;;;;;;11.43;10.60;;;;;;;;;;4986266;28;20643;-75
2023/07/31 05:18:37;;;;;;;11.60;10.60;;;;;;;;;;4986996;28;20395;-75
2023/07/31 05:21:02;;;;;;;11.57;10.77;;;;;;;;;;4987171;28;20038;-75
2023/07/31 05:23:28;;;;;;;12.88;11.68;;;;;;;;;;4986096;28;20039;-75
2023/07/31 05:25:53;;;;;;;11.57;10.55;;;;;;;;;;4985034;28;20561;-75
2023/07/31 05:28:21;;;;;;;11.13;10.32;;;;;;;;;;4986698;28;20141;-75
2023/07/31 05:30:47;;;;;;;10.88;9.95;;;;;;;;;;4986798;28;20030;-75
2023/07/31 05:33:12;;;;;;;12.13;11.02;;;;;;;;;;4984603;28;20101;-75
2023/07/31 05:35:38;;;;;;;11.25;10.43;;;;;;;;;;4986759;28;20418;-75
2023/07/31 05:38:04;;;;;;;11.65;10.82;;;;;;;;;;4986986;28;20647;-75
2023/07/31 05:40:32;;;;;;;12.20;11.30;;;;;;;;;;4985970;28;20054;-76
2023/07/31 05:42:58;;;;;;;11.60;10.90;;;;;;;;;;4985554;28;20046;-75
2023/07/31 05:45:25;;;;;;;11.95;10.80;;;;;;;;;;4986690;28;20042;-75
2023/07/31 05:47:50;;;;;;;11.55;10.65;;;;;;;;;;4985607;28;20091;-75
2023/07/31 05:50:20;;;;;;;12.68;11.45;;;;;;;;;;4984521;28;20124;-75
2023/07/31 05:52:46;;;;;;;11.60;10.65;;;;;;;;;;4986559;28;20038;-75
2023/07/31 05:55:11;;;;;;;11.77;10.77;;;;;;;;;;4986662;28;20045;-75
2023/07/31 05:57:37;;;;;;;11.30;10.30;;;;;;;;;;4985345;28;20037;-75
2023/07/31 06:00:02;;;;;;;12.00;10.70;;;;;;;;;;4986214;28;20572;-75
2023/07/31 06:02:36;;;;;;;10.70;9.90;;;;;;;;;;4987387;28;20066;-75
2023/07/31 06:05:03;;;;;;;11.07;9.98;;;;;;;;;;4986346;28;20371;-75
2023/07/31 06:07:29;;;;;;;10.18;9.48;;;;;;;;;;4983767;28;20112;-75
2023/07/31 06:09:55;;;;;;;11.63;10.63;;;;;;;;;;4984971;28;20177;-73
2023/07/31 06:12:21;;;;;;;10.73;9.75;;;;;;;;;;4986025;28;20034;-73
2023/07/31 06:14:46;;;;;;;11.20;10.30;;;;;;;;;;4985936;28;20039;-72
2023/07/31 06:17:12;;;;;;;11.10;10.18;;;;;;;;;;4983693;28;20439;-75
2023/07/31 06:19:37;;;;;;;10.73;9.88;;;;;;;;;;4985077;28;20049;-73
2023/07/31 06:22:03;;;;;;;10.48;9.65;;;;;;;;;;4986072;28;20124;-73
2023/07/31 06:24:29;;;;;;;10.82;9.93;;;;;;;;;;4984431;28;20070;-73
2023/07/31 06:26:55;;;;;;;10.52;9.05;;;;;;;;;;4985864;28;20122;-73
2023/07/31 06:29:20;;;;;;;10.65;9.73;;;;;;;;;;4985608;28;20075;-73
2023/07/31 06:31:46;;;;;;;10.10;9.18;;;;;;;;;;4985418;28;20053;-73
2023/07/31 06:34:11;;;;;;;10.15;9.35;;;;;;;;;;4984637;28;20030;-72
2023/07/31 06:36:37;;;;;;;10.10;9.13;;;;;;;;;;4984863;28;20501;-73
2023/07/31 06:39:03;;;;;;;10.35;9.38;;;;;;;;;;4985460;28;20439;-73
2023/07/31 06:41:29;;;;;;;11.82;9.35;;;;;;;;;;4984133;28;20040;-73
2023/07/31 06:43:54;;;;;;;9.70;9.00;;;;;;;;;;4984582;28;20042;-73
2023/07/31 06:46:20;;;;;;;10.20;9.32;;;;;;;;;;4985893;28;20064;-73
2023/07/31 06:48:45;;;;;;;9.70;8.80;;;;;;;;;;4983889;28;20030;-73
2023/07/31 06:51:11;;;;;;;10.63;9.60;;;;;;;;;;4985272;28;20037;-73
2023/07/31 06:53:37;;;;;;;10.45;9.45;;;;;;;;;;4985659;28;20049;-76
2023/07/31 06:56:02;;;;;;;9.90;9.07;;;;;;;;;;4985459;28;20117;-73
2023/07/31 06:58:28;;;;;;;9.48;8.77;;;;;;;;;;4981987;28;20547;-73
2023/07/31 07:00:53;;;;;;;9.57;8.85;;;;;;;;;;4985689;28;20034;-73
2023/07/31 07:03:20;;;;;;;10.43;9.25;;;;;;;;;;4985127;28;20073;-75
2023/07/31 07:05:46;;;;;;;8.95;8.15;;;;;;;;;;4983419;28;20034;-73
2023/07/31 07:08:11;;;;;;;9.90;9.07;;;;;;;;;;4985188;28;20041;-73
2023/07/31 07:10:37;;;;;;;9.18;8.27;;;;;;;;;;4984376;28;20138;-73
2023/07/31 07:13:02;;;;;;;8.85;8.10;;;;;;;;;;4985228;28;20121;-73
2023/07/31 07:15:28;;;;;;;9.75;8.07;;;;;;;;;;4985466;28;20030;-73
2023/07/31 07:17:54;;;;;;;8.73;8.10;;;;;;;;;;4984460;28;20046;-73
2023/07/31 07:20:20;;;;;;;10.13;9.18;;;;;;;;;;4982932;28;20045;-73
2023/07/31 07:22:45;;;;;;;10.15;9.10;;;;;;;;;;4985315;28;20046;-73
2023/07/31 07:25:11;;;;;;;10.10;9.15;;;;;;;;;;4984140;28;20046;-73
2023/07/31 07:27:36;;;;;;;8.73;8.10;;;;;;;;;;4985264;28;20074;-74
2023/07/31 07:30:03;;;;;;;9.00;8.20;;;;;;;;;;4985138;28;20575;-73
2023/07/31 07:32:29;;;;;;;9.15;8.18;;;;;;;;;;4985025;28;20102;-73
2023/07/31 07:34:56;;;;;;;8.38;7.60;;;;;;;;;;4981519;28;20033;-73
2023/07/31 07:37:21;;;;;;;9.15;8.00;;;;;;;;;;4984335;28;20581;-73
2023/07/31 07:39:47;;;;;;;9.00;8.20;;;;;;;;;;4984556;28;20046;-73
2023/07/31 07:42:12;;;;;;;9.68;8.75;;;;;;;;;;4984110;28;20076;-74
2023/07/31 07:44:38;;;;;;;9.70;8.85;;;;;;;;;;4984991;28;20042;-73
2023/07/31 07:47:05;;;;;;;9.50;8.65;;;;;;;;;;4985103;28;20038;-73
2023/07/31 07:49:31;;;;;;;9.50;8.60;;;;;;;;;;4987605;28;20434;-73
2023/07/31 07:51:57;;;;;;;9.43;8.25;;;;;;;;;;4987840;28;20037;-73
2023/07/31 07:54:23;;;;;;;9.23;8.27;;;;;;;;;;4988978;28;20038;-73
2023/07/31 07:56:49;;;;;;;10.15;9.07;;;;;;;;;;4988358;28;20550;-73
2023/07/31 07:59:15;;;;;;;9.82;9.00;;;;;;;;;;4987381;28;20026;-73
2023/07/31 08:01:40;;;;;;;10.50;9.10;;;;;;;;;;4988317;28;20038;-73
2023/07/31 08:04:06;;;;;;;8.70;8.10;;;;;;;;;;4988622;28;20749;-74
2023/07/31 08:06:31;;;;;;;9.60;8.80;;;;;;;;;;4987613;28;20030;-73
2023/07/31 08:08:57;;;;;;;9.68;8.73;;;;;;;;;;4988273;28;20127;-73
2023/07/31 08:11:23;;;;;;;9.00;8.10;;;;;;;;;;4988376;28;20049;-73
2023/07/31 08:13:49;;;;;;;10.05;9.10;;;;;;;;;;4985943;28;20034;-73
2023/07/31 08:16:15;;;;;;;10.45;9.45;;;;;;;;;;4983243;28;20068;-73
2023/07/31 08:18:42;;;;;;;9.75;8.75;;;;;;;;;;4966928;28;20660;-74
2023/07/31 08:21:08;;;;;;;9.13;8.32;;;;;;;;;;4976395;28;20693;-73
2023/07/31 08:23:33;;;;;;;9.20;8.30;;;;;;;;;;4984127;28;20026;-74
2023/07/31 08:25:59;;;;;;;11.38;7.93;;;;;;;;;;4984572;28;20042;-74
2023/07/31 08:28:25;;;;;;;8.18;7.57;;;;;;;;;;4984227;28;20066;-73
2023/07/31 08:30:50;;;;;;;8.85;7.90;;;;;;;;;;4983034;28;20065;-74
2023/07/31 08:33:16;;;;;;;8.30;7.60;;;;;;;;;;4984440;28;20026;-73
2023/07/31 08:35:42;;;;;;;8.35;7.55;;;;;;;;;;4984510;28;20038;-73
2023/07/31 08:38:07;;;;;;;7.95;7.25;;;;;;;;;;4983575;28;20029;-73
2023/07/31 08:40:37;;;;;;;10.13;7.72;;;;;;;;;;4983539;28;20035;-75
2023/07/31 08:43:03;;;;;;;9.05;7.28;;;;;;;;;;4986924;28;20044;-73
2023/07/31 08:45:29;;;;;;;8.30;7.50;;;;;;;;;;4986886;28;20038;-74
2023/07/31 08:47:56;;;;;;;8.13;7.43;;;;;;;;;;4987539;28;20034;-74
2023/07/31 08:50:21;;;;;;;7.90;7.20;;;;;;;;;;4985406;28;20041;-74
2023/07/31 08:52:49;;;;;;;8.45;7.18;;;;;;;;;;4987817;28;20034;-74
2023/07/31 08:55:15;;;;;;;8.98;7.05;;;;;;;;;;4983660;28;20037;-74
2023/07/31 08:57:41;;;;;;;8.30;7.30;;;;;;;;;;4987714;28;20034;-73
2023/07/31 09:00:09;;;;;;;7.70;7.07;;;;;;;;;;4987436;28;20030;-74
2023/07/31 09:02:41;;;;;;;7.78;7.00;;;;;;;;;;4986302;28;20716;-74
2023/07/31 09:05:07;;;;;;;7.82;6.75;;;;;;;;;;4987624;28;20062;-75
2023/07/31 09:07:35;;;;;;;7.47;6.80;;;;;;;;;;4988891;28;20034;-74
2023/07/31 09:10:02;;;;;;;8.15;7.45;;;;;;;;;;4984701;28;20510;-74
2023/07/31 09:12:28;;;;;;;9.68;6.63;;;;;;;;;;4984021;28;20038;-74
2023/07/31 09:14:53;;;;;;;8.00;7.22;;;;;;;;;;4978647;28;20035;-74
2023/07/31 09:17:36;;;;;;;8.70;7.10;;;;;;;;;;4979080;28;20041;-74
2023/07/31 09:20:19;;;;;;;8.65;7.85;;;;;;;;;;4981560;28;20038;-74
2023/07/31 09:22:46;;;;;;;10.02;7.97;;;;;;;;;;4977964;28;20045;-74
2023/07/31 09:25:25;;;;;;;9.70;8.80;;;;;;;;;;4982679;28;20022;-74
2023/07/31 09:27:53;;;;;;;9.07;8.27;;;;;;;;;;4983194;28;20065;-75
2023/07/31 09:30:20;;;;;;;17.13;8.40;;;;;;;;;;4981525;28;20128;-75
2023/07/31 09:32:47;;;;;;;9.07;7.20;;;;;;;;;;4979919;28;20055;-74
2023/07/31 09:35:19;;;;;;;7.85;7.18;;;;;;;;;;4981622;28;20069;-75
2023/07/31 09:37:49;;;;;;;8.93;7.72;;;;;;;;;;4983137;28;20038;-75
2023/07/31 09:40:26;;;;;;;11.85;8.35;;;;;;;;;;4983392;28;20046;-76
2023/07/31 09:43:00;;;;;;;8.63;7.63;;;;;;;;;;4980038;28;20477;-74
2023/07/31 09:45:26;;;;;;;9.68;8.77;;;;;;;;;;4982204;28;20114;-73
2023/07/31 09:47:52;;;;;;;9.63;8.68;;;;;;;;;;4981312;28;20088;-77
2023/07/31 09:50:19;;;;;;;9.27;8.38;;;;;;;;;;4982150;28;20034;-76
2023/07/31 09:52:45;;;;;;;9.02;8.13;;;;;;;;;;4982040;28;20535;-75
2023/07/31 09:55:11;;;;;;;9.45;8.55;;;;;;;;;;4982825;28;20498;-76
2023/07/31 09:57:44;;;;;;;9.35;8.45;;;;;;;;;;4982140;28;20142;-76
2023/07/31 10:00:10;;;;;;;13.07;9.00;;;;;;;;;;4981662;28;20434;-75
2023/07/31 10:02:41;;;;;;;9.02;8.23;;;;;;;;;;4965309;28;20125;-75
2023/07/31 10:05:07;;;;;;;9.15;8.35;;;;;;;;;;4982631;28;20399;-76
2023/07/31 10:07:39;;;;;;;8.88;7.97;;;;;;;;;;4982725;28;20117;-77
2023/07/31 10:10:07;;;;;;;8.95;8.10;;;;;;;;;;4980414;28;20053;-76
2023/07/31 10:12:34;;;;;;;8.95;8.05;;;;;;;;;;4981648;28;20422;-76
2023/07/31 10:15:00;;;;;;;9.30;8.60;;;;;;;;;;4981458;28;20504;-76
2023/07/31 10:17:26;;;;;;;8.43;7.55;;;;;;;;;;4984171;28;20034;-74
2023/07/31 10:19:53;;;;;;;9.43;7.90;;;;;;;;;;4981929;28;20630;-76
2023/07/31 10:22:22;;;;;;;8.00;7.40;;;;;;;;;;4981658;28;20383;-76
2023/07/31 10:24:48;;;;;;;9.57;8.02;;;;;;;;;;4982474;28;20097;-76
2023/07/31 10:27:14;;;;;;;8.82;7.85;;;;;;;;;;4981729;28;20069;-75
2023/07/31 10:29:42;;;;;;;8.73;7.82;;;;;;;;;;4979621;28;20070;-76
2023/07/31 10:32:10;;;;;;;8.43;7.53;;;;;;;;;;4980896;28;20092;-75
2023/07/31 10:34:37;;;;;;;8.77;8.07;;;;;;;;;;4980787;28;20038;-76
2023/07/31 10:37:36;;;;;;;8.15;7.38;;;;;;;;;;4982015;28;20030;-76
2023/07/31 10:40:09;;;;;;;9.20;7.93;;;;;;;;;;4985203;28;20057;-75
2023/07/31 10:42:44;;;;;;;8.75;7.95;;;;;;;;;;4982507;28;20529;-76
2023/07/31 10:45:11;;;;;;;9.48;7.70;;;;;;;;;;4980343;28;20085;-75
2023/07/31 10:47:44;;;;;;;8.23;7.57;;;;;;;;;;4982518;28;20093;-76
2023/07/31 10:50:23;;;;;;;8.63;7.85;;;;;;;;;;4980560;28;20045;-76
2023/07/31 10:52:50;;;;;;;7.60;6.95;;;;;;;;;;4979649;28;20375;-75
2023/07/31 10:55:22;;;;;;;9.48;8.50;;;;;;;;;;4981903;28;20030;-76
2023/07/31 10:57:48;;;;;;;9.15;7.65;;;;;;;;;;4978529;28;20837;-76
2023/07/31 11:00:21;;;;;;;9.48;8.57;;;;;;;;;;4982179;28;20030;-76
2023/07/31 11:02:59;;;;;;;8.85;8.13;;;;;;;;;;4978534;28;20125;-75
2023/07/31 11:05:42;;;;;;;9.32;8.38;;;;;;;;;;4980612;28;20523;-75
2023/07/31 11:08:27;;;;;;;10.65;8.32;;;;;;;;;;4982223;28;20050;-76
2023/07/31 11:11:16;;;;;;;8.60;7.82;;;;;;;;;;4974029;28;20031;-75
2023/07/31 11:13:45;;;;;;;;;;;;;;;;;;4979179;28;20058;-76
2023/07/31 11:16:12;;;;;;;9.38;7.43;;;;;;;;;;4981690;28;20294;-76
2023/07/31 11:18:40;;;;;;;8.70;8.00;;;;;;;;;;4981770;28;20069;-75
2023/07/31 11:21:06;;;;;;;9.50;7.53;;;;;;;;;;4980304;28;20068;-75
2023/07/31 11:23:32;;;;;;;8.95;8.20;;;;;;;;;;4983869;28;20652;-75
2023/07/31 11:26:01;;;;;;;8.75;7.95;;;;;;;;;;4985841;28;20042;-76
2023/07/31 11:28:32;;;;;;;9.70;8.68;;;;;;;;;;4985513;28;20112;-77
2023/07/31 11:30:58;;;;;;;8.50;7.55;;;;;;;;;;4984706;28;20078;-75
2023/07/31 11:33:23;;;;;;;9.43;8.35;;;;;;;;;;4985631;28;20041;-75
2023/07/31 11:35:49;;;;;;;10.02;8.13;;;;;;;;;;4986168;28;20437;-75
2023/07/31 11:38:31;;;;;;;8.82;8.13;;;;;;;;;;4985172;28;20034;-75
2023/07/31 11:40:58;;;;;;;9.80;8.27;;;;;;;;;;4977128;28;20070;-75
2023/07/31 11:43:26;;;;;;;9.73;8.82;;;;;;;;;;4979943;28;20035;-76
2023/07/31 11:45:56;;;;;;;9.52;8.63;;;;;;;;;;4983421;28;20176;-76
2023/07/31 11:48:27;;;;;;;10.77;9.25;;;;;;;;;;4983371;28;20038;-76
2023/07/31 11:50:54;;;;;;;9.65;8.95;;;;;;;;;;4983002;28;20146;-76
2023/07/31 11:53:36;;;;;;;10.18;9.27;;;;;;;;;;4986358;28;20030;-75
2023/07/31 11:56:06;;;;;;;10.30;9.40;;;;;;;;;;4986258;28;20030;-76
2023/07/31 11:58:34;;;;;;;12.10;9.55;;;;;;;;;;4984197;28;20045;-75
2023/07/31 12:01:01;;;;;;;10.68;9.48;;;;;;;;;;4986844;28;20124;-76
2023/07/31 12:03:27;;;;;;;10.85;9.43;;;;;;;;;;4986735;28;20062;-76
2023/07/31 12:05:53;;;;;;;10.68;9.60;;;;;;;;;;4985938;28;20395;-76
2023/07/31 12:08:21;;;;;;;11.20;9.43;;;;;;;;;;4985271;28;20034;-75
2023/07/31 12:10:50;;;;;;;10.30;9.32;;;;;;;;;;4987058;28;20034;-76
2023/07/31 12:13:26;;;;;;;10.45;9.55;;;;;;;;;;4985356;28;20454;-76
2023/07/31 12:15:57;;;;;;;11.00;9.65;;;;;;;;;;4985186;28;20514;-75
2023/07/31 12:18:24;;;;;;;9.90;9.10;;;;;;;;;;4986477;28;20166;-76
2023/07/31 12:20:55;;;;;;;10.50;9.40;;;;;;;;;;4986557;28;20062;-75
2023/07/31 12:23:27;;;;;;;9.70;8.93;;;;;;;;;;4984936;28;20080;-75
2023/07/31 12:26:15;;;;;;;10.10;9.20;;;;;;;;;;4988965;28;20042;-76
2023/07/31 12:28:44;;;;;;;10.00;9.20;;;;;;;;;;4982975;28;20046;-75
2023/07/31 12:31:13;;;;;;;10.83;9.87;;;;;;;;;;4985164;28;20510;-75
2023/07/31 12:33:41;;;;;;;10.63;9.63;;;;;;;;;;4981878;28;20416;-76
2023/07/31 12:36:14;;;;;;;10.80;9.77;;;;;;;;;;4986233;28;20376;-75
2023/07/31 12:38:41;;;;;;;10.10;9.25;;;;;;;;;;4985166;28;20642;-75
2023/07/31 12:41:06;;;;;;;10.20;9.30;;;;;;;;;;4986436;28;20026;-75
2023/07/31 12:43:36;;;;;;;10.50;9.60;;;;;;;;;;4986389;28;20034;-76
2023/07/31 12:46:03;;;;;;;10.70;9.80;;;;;;;;;;4985575;28;20097;-76
2023/07/31 12:48:28;;;;;;;10.23;9.43;;;;;;;;;;4985936;28;20031;-76
2023/07/31 12:50:54;;;;;;;10.70;9.70;;;;;;;;;;4984652;28;20075;-75
2023/07/31 12:53:19;;;;;;;10.23;9.32;;;;;;;;;;4985706;28;20073;-75
2023/07/31 12:55:45;;;;;;;10.43;9.57;;;;;;;;;;4983929;28;20050;-75
2023/07/31 12:58:10;;;;;;;10.02;9.25;;;;;;;;;;4984214;28;20041;-75
2023/07/31 13:00:36;;;;;;;13.70;9.63;;;;;;;;;;4986046;28;20034;-76
2023/07/31 13:03:02;;;;;;;10.52;9.65;;;;;;;;;;4984823;28;20049;-76
2023/07/31 13:05:29;;;;;;;10.65;9.65;;;;;;;;;;4983273;28;20038;-75
2023/07/31 13:07:54;;;;;;;10.32;9.43;;;;;;;;;;4984894;28;20074;-75
2023/07/31 13:10:20;;;;;;;10.63;9.73;;;;;;;;;;4984670;28;20533;-74
2023/07/31 13:12:46;;;;;;;10.93;9.98;;;;;;;;;;4984747;28;20520;-74
2023/07/31 13:15:12;;;;;;;11.18;9.50;;;;;;;;;;4984367;28;20037;-75
2023/07/31 13:17:37;;;;;;;10.13;9.32;;;;;;;;;;4984126;28;20125;-74
2023/07/31 13:20:03;;;;;;;10.43;9.50;;;;;;;;;;4985188;28;20137;-74
2023/07/31 13:22:29;;;;;;;11.10;10.02;;;;;;;;;;4985386;28;20042;-74
2023/07/31 13:24:55;;;;;;;10.70;9.73;;;;;;;;;;4983185;28;20050;-75
2023/07/31 13:27:21;;;;;;;11.00;9.98;;;;;;;;;;4985992;28;20141;-74
2023/07/31 13:29:49;;;;;;;11.05;9.10;;;;;;;;;;4985302;28;20053;-74
2023/07/31 13:32:16;;;;;;;10.23;9.48;;;;;;;;;;4983065;28;20113;-74
2023/07/31 13:34:42;;;;;;;10.48;9.38;;;;;;;;;;4985464;28;20049;-75
2023/07/31 13:37:08;;;;;;;10.30;9.40;;;;;;;;;;4985250;28;20038;-75
2023/07/31 13:39:34;;;;;;;9.68;8.90;;;;;;;;;;4985380;28;20101;-74
2023/07/31 13:42:00;;;;;;;9.55;8.70;;;;;;;;;;4982613;28;20046;-74
2023/07/31 13:44:26;;;;;;;9.48;8.85;;;;;;;;;;4985276;28;20557;-74
2023/07/31 13:46:52;;;;;;;9.50;8.70;;;;;;;;;;4984580;28;20030;-74
2023/07/31 13:49:17;;;;;;;10.13;9.25;;;;;;;;;;4984918;28;20038;-74
2023/07/31 13:51:43;;;;;;;10.23;8.95;;;;;;;;;;4982228;28;20046;-74
2023/07/31 13:54:09;;;;;;;9.82;9.05;;;;;;;;;;4985067;28;20486;-74
2023/07/31 13:56:34;;;;;;;10.30;8.95;;;;;;;;;;4982862;28;20038;-73
2023/07/31 13:59:01;;;;;;;10.48;9.60;;;;;;;;;;4986246;28;20042;-75
2023/07/31 14:01:26;;;;;;;10.20;9.30;;;;;;;;;;4983951;28;20068;-73
2023/07/31 14:03:52;;;;;;;9.93;9.05;;;;;;;;;;4986907;28;20034;-74
2023/07/31 14:06:18;;;;;;;9.60;8.73;;;;;;;;;;4986069;28;20058;-74
2023/07/31 14:08:43;;;;;;;9.63;8.63;;;;;;;;;;4984937;28;20593;-74
2023/07/31 14:11:09;;;;;;;12.93;8.80;;;;;;;;;;4985178;28;20727;-74
2023/07/31 14:13:34;;;;;;;10.07;9.20;;;;;;;;;;4986183;28;20026;-74
2023/07/31 14:16:00;;;;;;;13.70;9.90;;;;;;;;;;4986300;28;20529;-74
2023/07/31 14:18:25;;;;;;;16.48;11.07;;;;;;;;;;4985102;28;20509;-74
2023/07/31 14:20:51;;;;;;;9.38;8.50;;;;;;;;;;4986003;28;20041;-75
2023/07/31 14:23:17;;;;;;;9.27;8.50;;;;;;;;;;4986078;28;20038;-74
2023/07/31 14:25:42;;;;;;;9.52;8.70;;;;;;;;;;4983131;28;20038;-74
2023/07/31 14:28:08;;;;;;;10.55;9.65;;;;;;;;;;4985754;28;20526;-74